Berriobeiti, Spain
Current Conditions -  °F | °C
As of 5:30 AM on Sunday 21 Dec 2014 (Local Time) from LEPP Reporting Station
Scattered Clouds Scattered Clouds  
Wind Chill: 42°   Ceiling: Unl
Heat Index: 45°   Visibility: 6mi
Dew Point: 39°   Wind: 5mph
Humidity: 81%   Direction: 310°NW
Pressure: 30.5"   Gusts: NA
Location:  42.85°N, 1.7°W
Report Text: LEPP 210430Z 31004KT 9999 SCT047 07/04 Q1033
Loading
Personal Weather Stations






























Interactive Weather Map New forecast layout! Learn more

10-Day Weather Forecast

Advertisements
Track Severe Weather on mobile